sensor_id;sensor_type;location;lat;lon;timestamp;temperature;humidity
31809;DHT22;18379;48.208;-1.518;2024-02-26T00:04:52;9.90;99.90
31809;DHT22;18379;48.208;-1.518;2024-02-26T00:09:53;9.90;99.90
31809;DHT22;18379;48.208;-1.518;2024-02-26T00:14:53;9.90;99.90
31809;DHT22;18379;48.208;-1.518;2024-02-26T00:19:54;9.90;99.90
31809;DHT22;18379;48.208;-1.518;2024-02-26T00:24:55;9.90;99.90
31809;DHT22;18379;48.208;-1.518;2024-02-26T00:29:55;9.90;99.90
31809;DHT22;18379;48.208;-1.518;2024-02-26T00:34:56;9.90;99.90
31809;DHT22;18379;48.208;-1.518;2024-02-26T00:39:56;9.80;99.90
31809;DHT22;18379;48.208;-1.518;2024-02-26T00:44:57;9.80;99.90
31809;DHT22;18379;48.208;-1.518;2024-02-26T00:49:58;9.90;99.90
31809;DHT22;18379;48.208;-1.518;2024-02-26T00:54:58;9.90;99.90
31809;DHT22;18379;48.208;-1.518;2024-02-26T00:59:59;10.00;99.90
31809;DHT22;18379;48.208;-1.518;2024-02-26T01:05:01;10.00;99.90
31809;DHT22;18379;48.208;-1.518;2024-02-26T01:10:02;10.00;99.90
31809;DHT22;18379;48.208;-1.518;2024-02-26T01:15:03;10.00;99.90
31809;DHT22;18379;48.208;-1.518;2024-02-26T01:20:05;10.00;99.90
31809;DHT22;18379;48.208;-1.518;2024-02-26T01:25:06;10.00;99.90
31809;DHT22;18379;48.208;-1.518;2024-02-26T01:30:08;9.90;99.90
31809;DHT22;18379;48.208;-1.518;2024-02-26T01:35:09;9.90;99.90
31809;DHT22;18379;48.208;-1.518;2024-02-26T01:40:12;9.90;99.90
31809;DHT22;18379;48.208;-1.518;2024-02-26T01:45:15;9.90;99.90
31809;DHT22;18379;48.208;-1.518;2024-02-26T01:50:21;9.90;99.90
31809;DHT22;18379;48.208;-1.518;2024-02-26T01:55:23;9.90;99.90
31809;DHT22;18379;48.208;-1.518;2024-02-26T02:00:24;9.90;99.90
31809;DHT22;18379;48.208;-1.518;2024-02-26T02:05:26;9.90;99.90
31809;DHT22;18379;48.208;-1.518;2024-02-26T02:10:27;9.90;99.90
31809;DHT22;18379;48.208;-1.518;2024-02-26T02:15:28;9.90;99.90
31809;DHT22;18379;48.208;-1.518;2024-02-26T02:20:35;9.90;99.90
31809;DHT22;18379;48.208;-1.518;2024-02-26T02:25:36;9.90;99.90
31809;DHT22;18379;48.208;-1.518;2024-02-26T02:30:38;9.90;99.90
31809;DHT22;18379;48.208;-1.518;2024-02-26T02:35:39;9.90;99.90
31809;DHT22;18379;48.208;-1.518;2024-02-26T02:40:39;9.80;99.90
31809;DHT22;18379;48.208;-1.518;2024-02-26T02:45:40;9.80;99.90
31809;DHT22;18379;48.208;-1.518;2024-02-26T02:50:41;9.80;99.90
31809;DHT22;18379;48.208;-1.518;2024-02-26T02:55:42;9.80;99.90
31809;DHT22;18379;48.208;-1.518;2024-02-26T03:00:43;9.80;99.90
31809;DHT22;18379;48.208;-1.518;2024-02-26T03:05:43;9.80;99.90
31809;DHT22;18379;48.208;-1.518;2024-02-26T03:10:44;9.70;99.90
31809;DHT22;18379;48.208;-1.518;2024-02-26T03:15:45;9.80;99.90
31809;DHT22;18379;48.208;-1.518;2024-02-26T03:20:45;9.90;99.90
31809;DHT22;18379;48.208;-1.518;2024-02-26T03:25:46;9.90;99.90
31809;DHT22;18379;48.208;-1.518;2024-02-26T03:30:48;9.90;99.90
31809;DHT22;18379;48.208;-1.518;2024-02-26T03:35:48;10.00;99.90
31809;DHT22;18379;48.208;-1.518;2024-02-26T03:40:49;9.90;99.90
31809;DHT22;18379;48.208;-1.518;2024-02-26T03:45:50;9.80;99.90
31809;DHT22;18379;48.208;-1.518;2024-02-26T03:50:50;9.80;99.90
31809;DHT22;18379;48.208;-1.518;2024-02-26T03:55:51;9.70;99.90
31809;DHT22;18379;48.208;-1.518;2024-02-26T04:00:53;9.60;99.90
31809;DHT22;18379;48.208;-1.518;2024-02-26T04:05:53;9.60;99.90
31809;DHT22;18379;48.208;-1.518;2024-02-26T04:10:54;9.70;99.90
31809;DHT22;18379;48.208;-1.518;2024-02-26T04:15:54;9.80;99.90
31809;DHT22;18379;48.208;-1.518;2024-02-26T04:20:55;9.80;99.90
31809;DHT22;18379;48.208;-1.518;2024-02-26T04:25:57;9.60;99.90
31809;DHT22;18379;48.208;-1.518;2024-02-26T04:30:57;9.50;99.90
31809;DHT22;18379;48.208;-1.518;2024-02-26T04:35:58;9.60;99.90
31809;DHT22;18379;48.208;-1.518;2024-02-26T04:40:59;9.60;99.90
31809;DHT22;18379;48.208;-1.518;2024-02-26T04:45:59;9.40;99.90
31809;DHT22;18379;48.208;-1.518;2024-02-26T04:51:00;9.40;99.90
31809;DHT22;18379;48.208;-1.518;2024-02-26T04:56:01;9.20;99.90
31809;DHT22;18379;48.208;-1.518;2024-02-26T05:01:03;9.40;99.90
31809;DHT22;18379;48.208;-1.518;2024-02-26T05:06:05;9.40;99.90
31809;DHT22;18379;48.208;-1.518;2024-02-26T05:11:05;9.30;99.90
31809;DHT22;18379;48.208;-1.518;2024-02-26T05:16:06;9.30;99.90
31809;DHT22;18379;48.208;-1.518;2024-02-26T05:21:07;9.30;99.90
31809;DHT22;18379;48.208;-1.518;2024-02-26T05:26:07;9.30;99.90
31809;DHT22;18379;48.208;-1.518;2024-02-26T05:31:08;9.40;99.90
31809;DHT22;18379;48.208;-1.518;2024-02-26T05:36:08;9.20;99.90
31809;DHT22;18379;48.208;-1.518;2024-02-26T05:41:09;9.20;99.90
31809;DHT22;18379;48.208;-1.518;2024-02-26T05:46:10;9.20;99.90
31809;DHT22;18379;48.208;-1.518;2024-02-26T05:51:11;8.70;99.90
31809;DHT22;18379;48.208;-1.518;2024-02-26T05:56:12;8.50;99.90
31809;DHT22;18379;48.208;-1.518;2024-02-26T06:01:12;8.50;99.90
31809;DHT22;18379;48.208;-1.518;2024-02-26T06:06:13;8.50;99.90
31809;DHT22;18379;48.208;-1.518;2024-02-26T06:11:15;8.60;99.90
31809;DHT22;18379;48.208;-1.518;2024-02-26T06:16:16;8.50;99.90
31809;DHT22;18379;48.208;-1.518;2024-02-26T06:21:16;8.50;99.90
31809;DHT22;18379;48.208;-1.518;2024-02-26T06:26:17;8.40;99.90
31809;DHT22;18379;48.208;-1.518;2024-02-26T06:31:18;8.40;99.90
31809;DHT22;18379;48.208;-1.518;2024-02-26T06:36:18;8.40;99.90
31809;DHT22;18379;48.208;-1.518;2024-02-26T06:41:19;8.40;99.90
31809;DHT22;18379;48.208;-1.518;2024-02-26T06:46:20;8.40;99.90
31809;DHT22;18379;48.208;-1.518;2024-02-26T06:51:22;8.40;99.90
31809;DHT22;18379;48.208;-1.518;2024-02-26T06:56:22;8.40;99.90
31809;DHT22;18379;48.208;-1.518;2024-02-26T07:01:23;8.40;99.90
31809;DHT22;18379;48.208;-1.518;2024-02-26T07:06:24;8.40;99.90
31809;DHT22;18379;48.208;-1.518;2024-02-26T07:11:24;8.40;99.90
31809;DHT22;18379;48.208;-1.518;2024-02-26T07:16:25;8.40;99.90
31809;DHT22;18379;48.208;-1.518;2024-02-26T07:21:27;8.40;99.90
31809;DHT22;18379;48.208;-1.518;2024-02-26T07:26:28;8.30;99.90
31809;DHT22;18379;48.208;-1.518;2024-02-26T07:31:31;8.30;99.90
31809;DHT22;18379;48.208;-1.518;2024-02-26T07:36:31;8.20;99.90
31809;DHT22;18379;48.208;-1.518;2024-02-26T07:41:32;8.20;99.90
31809;DHT22;18379;48.208;-1.518;2024-02-26T07:46:33;8.20;99.90
31809;DHT22;18379;48.208;-1.518;2024-02-26T07:51:34;8.10;99.90
31809;DHT22;18379;48.208;-1.518;2024-02-26T07:56:35;8.00;99.90
31809;DHT22;18379;48.208;-1.518;2024-02-26T08:01:35;8.00;99.90
31809;DHT22;18379;48.208;-1.518;2024-02-26T08:06:39;8.00;99.90
31809;DHT22;18379;48.208;-1.518;2024-02-26T08:11:40;8.00;99.90
31809;DHT22;18379;48.208;-1.518;2024-02-26T08:16:40;7.90;99.90
31809;DHT22;18379;48.208;-1.518;2024-02-26T08:21:41;8.00;99.90
31809;DHT22;18379;48.208;-1.518;2024-02-26T08:26:42;7.90;99.90
31809;DHT22;18379;48.208;-1.518;2024-02-26T08:31:42;8.00;99.90
31809;DHT22;18379;48.208;-1.518;2024-02-26T08:36:43;8.00;99.90
31809;DHT22;18379;48.208;-1.518;2024-02-26T08:41:44;8.00;99.90
31809;DHT22;18379;48.208;-1.518;2024-02-26T08:46:45;8.00;99.90
31809;DHT22;18379;48.208;-1.518;2024-02-26T08:51:46;8.00;99.90
31809;DHT22;18379;48.208;-1.518;2024-02-26T08:56:47;7.90;99.90
31809;DHT22;18379;48.208;-1.518;2024-02-26T09:01:47;7.90;99.90
31809;DHT22;18379;48.208;-1.518;2024-02-26T09:06:48;7.80;99.90
31809;DHT22;18379;48.208;-1.518;2024-02-26T09:11:49;7.80;99.90
31809;DHT22;18379;48.208;-1.518;2024-02-26T09:16:52;7.90;99.90
31809;DHT22;18379;48.208;-1.518;2024-02-26T09:21:53;7.80;99.90
31809;DHT22;18379;48.208;-1.518;2024-02-26T09:26:57;7.80;99.90
31809;DHT22;18379;48.208;-1.518;2024-02-26T09:31:58;7.90;99.90
31809;DHT22;18379;48.208;-1.518;2024-02-26T09:36:59;7.80;99.90
31809;DHT22;18379;48.208;-1.518;2024-02-26T09:42:04;7.80;99.90
31809;DHT22;18379;48.208;-1.518;2024-02-26T09:47:05;7.90;99.90
31809;DHT22;18379;48.208;-1.518;2024-02-26T09:52:08;7.90;99.90
31809;DHT22;18379;48.208;-1.518;2024-02-26T09:57:12;7.80;99.90
31809;DHT22;18379;48.208;-1.518;2024-02-26T10:02:18;7.80;99.90
31809;DHT22;18379;48.208;-1.518;2024-02-26T10:07:20;7.80;99.90
31809;DHT22;18379;48.208;-1.518;2024-02-26T10:12:21;7.90;99.90
31809;DHT22;18379;48.208;-1.518;2024-02-26T10:17:22;7.90;99.90
31809;DHT22;18379;48.208;-1.518;2024-02-26T10:22:23;8.00;99.90
31809;DHT22;18379;48.208;-1.518;2024-02-26T10:27:24;8.00;99.90
31809;DHT22;18379;48.208;-1.518;2024-02-26T10:32:25;8.00;99.90
31809;DHT22;18379;48.208;-1.518;2024-02-26T10:37:26;8.00;99.90
31809;DHT22;18379;48.208;-1.518;2024-02-26T10:42:27;8.10;99.90
31809;DHT22;18379;48.208;-1.518;2024-02-26T10:47:28;8.10;99.90
31809;DHT22;18379;48.208;-1.518;2024-02-26T10:52:32;8.20;99.90
31809;DHT22;18379;48.208;-1.518;2024-02-26T10:57:39;8.20;99.90
31809;DHT22;18379;48.208;-1.518;2024-02-26T11:02:41;8.20;99.90
31809;DHT22;18379;48.208;-1.518;2024-02-26T11:07:42;8.20;99.90
31809;DHT22;18379;48.208;-1.518;2024-02-26T11:12:43;8.20;99.90
31809;DHT22;18379;48.208;-1.518;2024-02-26T11:17:46;8.00;99.90
31809;DHT22;18379;48.208;-1.518;2024-02-26T11:22:48;8.10;99.90
31809;DHT22;18379;48.208;-1.518;2024-02-26T11:28:02;8.10;99.90
31809;DHT22;18379;48.208;-1.518;2024-02-26T11:33:04;8.00;99.90
31809;DHT22;18379;48.208;-1.518;2024-02-26T11:38:06;8.00;99.90
31809;DHT22;18379;48.208;-1.518;2024-02-26T11:43:07;7.90;99.90
31809;DHT22;18379;48.208;-1.518;2024-02-26T11:48:34;8.00;99.90
31809;DHT22;18379;48.208;-1.518;2024-02-26T11:53:46;7.90;99.90
31809;DHT22;18379;48.208;-1.518;2024-02-26T11:58:53;7.90;99.90
31809;DHT22;18379;48.208;-1.518;2024-02-26T12:03:56;7.80;99.90
31809;DHT22;18379;48.208;-1.518;2024-02-26T12:08:57;7.80;99.90
31809;DHT22;18379;48.208;-1.518;2024-02-26T12:13:58;7.80;99.90
31809;DHT22;18379;48.208;-1.518;2024-02-26T12:18:59;7.80;99.90
31809;DHT22;18379;48.208;-1.518;2024-02-26T12:24:14;7.70;99.90
31809;DHT22;18379;48.208;-1.518;2024-02-26T12:29:16;7.70;99.90
31809;DHT22;18379;48.208;-1.518;2024-02-26T12:34:16;7.80;99.90
31809;DHT22;18379;48.208;-1.518;2024-02-26T12:39:17;7.90;99.90
31809;DHT22;18379;48.208;-1.518;2024-02-26T12:44:26;7.90;99.90
31809;DHT22;18379;48.208;-1.518;2024-02-26T12:49:27;7.80;99.90
31809;DHT22;18379;48.208;-1.518;2024-02-26T12:54:31;7.80;99.90
31809;DHT22;18379;48.208;-1.518;2024-02-26T12:59:34;7.70;99.90
31809;DHT22;18379;48.208;-1.518;2024-02-26T13:04:35;7.80;99.90
31809;DHT22;18379;48.208;-1.518;2024-02-26T13:09:36;7.70;99.90
31809;DHT22;18379;48.208;-1.518;2024-02-26T13:14:37;7.80;99.90
31809;DHT22;18379;48.208;-1.518;2024-02-26T13:19:37;7.80;99.90
31809;DHT22;18379;48.208;-1.518;2024-02-26T13:24:58;7.80;99.90
31809;DHT22;18379;48.208;-1.518;2024-02-26T13:30:09;7.80;99.90
31809;DHT22;18379;48.208;-1.518;2024-02-26T13:35:11;7.80;99.90
31809;DHT22;18379;48.208;-1.518;2024-02-26T13:40:13;7.70;99.90
31809;DHT22;18379;48.208;-1.518;2024-02-26T13:45:13;7.60;99.90
31809;DHT22;18379;48.208;-1.518;2024-02-26T13:50:14;7.60;99.90
31809;DHT22;18379;48.208;-1.518;2024-02-26T13:55:14;7.50;99.90
31809;DHT22;18379;48.208;-1.518;2024-02-26T14:00:15;7.50;99.90
31809;DHT22;18379;48.208;-1.518;2024-02-26T14:05:16;7.60;99.90
31809;DHT22;18379;48.208;-1.518;2024-02-26T14:10:17;7.50;99.90
31809;DHT22;18379;48.208;-1.518;2024-02-26T14:15:18;7.60;99.90
31809;DHT22;18379;48.208;-1.518;2024-02-26T14:20:18;7.50;99.90
31809;DHT22;18379;48.208;-1.518;2024-02-26T14:25:20;7.50;99.90
31809;DHT22;18379;48.208;-1.518;2024-02-26T14:30:20;7.50;99.90
31809;DHT22;18379;48.208;-1.518;2024-02-26T14:35:22;7.50;99.90
31809;DHT22;18379;48.208;-1.518;2024-02-26T14:40:22;7.50;99.90
31809;DHT22;18379;48.208;-1.518;2024-02-26T14:45:23;7.40;99.90
31809;DHT22;18379;48.208;-1.518;2024-02-26T14:50:24;7.50;99.90
31809;DHT22;18379;48.208;-1.518;2024-02-26T14:55:24;7.50;99.90
31809;DHT22;18379;48.208;-1.518;2024-02-26T15:00:25;7.60;99.90
31809;DHT22;18379;48.208;-1.518;2024-02-26T15:05:25;7.50;99.90
31809;DHT22;18379;48.208;-1.518;2024-02-26T15:10:26;7.50;99.90
31809;DHT22;18379;48.208;-1.518;2024-02-26T15:15:29;7.50;99.90
31809;DHT22;18379;48.208;-1.518;2024-02-26T15:20:29;7.40;99.90
31809;DHT22;18379;48.208;-1.518;2024-02-26T15:25:30;7.40;99.90
31809;DHT22;18379;48.208;-1.518;2024-02-26T15:30:32;7.30;99.90
31809;DHT22;18379;48.208;-1.518;2024-02-26T15:35:33;7.30;99.90
31809;DHT22;18379;48.208;-1.518;2024-02-26T15:40:33;7.40;99.90
31809;DHT22;18379;48.208;-1.518;2024-02-26T15:45:34;7.40;99.90
31809;DHT22;18379;48.208;-1.518;2024-02-26T15:50:35;7.40;99.90
31809;DHT22;18379;48.208;-1.518;2024-02-26T15:55:38;7.50;99.90
31809;DHT22;18379;48.208;-1.518;2024-02-26T16:00:40;7.60;99.90
31809;DHT22;18379;48.208;-1.518;2024-02-26T16:05:41;7.50;99.90
31809;DHT22;18379;48.208;-1.518;2024-02-26T16:10:42;7.50;99.90
31809;DHT22;18379;48.208;-1.518;2024-02-26T16:15:48;7.50;99.90
31809;DHT22;18379;48.208;-1.518;2024-02-26T16:20:50;7.60;99.90
31809;DHT22;18379;48.208;-1.518;2024-02-26T16:25:51;7.70;99.90
31809;DHT22;18379;48.208;-1.518;2024-02-26T16:30:52;7.70;99.90
31809;DHT22;18379;48.208;-1.518;2024-02-26T16:35:53;7.50;99.90
31809;DHT22;18379;48.208;-1.518;2024-02-26T16:40:54;7.50;99.90
31809;DHT22;18379;48.208;-1.518;2024-02-26T16:45:54;7.50;99.90
31809;DHT22;18379;48.208;-1.518;2024-02-26T16:50:55;7.50;99.90
31809;DHT22;18379;48.208;-1.518;2024-02-26T16:55:56;7.50;99.90
31809;DHT22;18379;48.208;-1.518;2024-02-26T17:00:59;7.50;99.90
31809;DHT22;18379;48.208;-1.518;2024-02-26T17:05:59;7.50;99.90
31809;DHT22;18379;48.208;-1.518;2024-02-26T17:11:00;7.40;99.90
31809;DHT22;18379;48.208;-1.518;2024-02-26T17:16:01;7.50;99.90
31809;DHT22;18379;48.208;-1.518;2024-02-26T17:21:02;7.50;99.90
31809;DHT22;18379;48.208;-1.518;2024-02-26T17:26:03;7.50;99.90
31809;DHT22;18379;48.208;-1.518;2024-02-26T17:31:04;7.50;99.90
31809;DHT22;18379;48.208;-1.518;2024-02-26T17:36:05;7.40;99.90
31809;DHT22;18379;48.208;-1.518;2024-02-26T17:41:07;7.40;99.90
31809;DHT22;18379;48.208;-1.518;2024-02-26T17:46:08;7.40;99.90
31809;DHT22;18379;48.208;-1.518;2024-02-26T17:51:09;7.40;99.90
31809;DHT22;18379;48.208;-1.518;2024-02-26T17:56:11;7.30;99.90
31809;DHT22;18379;48.208;-1.518;2024-02-26T18:01:13;7.30;99.90
31809;DHT22;18379;48.208;-1.518;2024-02-26T18:06:14;7.20;99.90
31809;DHT22;18379;48.208;-1.518;2024-02-26T18:11:15;7.20;99.90
31809;DHT22;18379;48.208;-1.518;2024-02-26T18:16:17;7.30;99.90
31809;DHT22;18379;48.208;-1.518;2024-02-26T18:21:17;7.20;99.90
31809;DHT22;18379;48.208;-1.518;2024-02-26T18:26:22;7.20;99.90
31809;DHT22;18379;48.208;-1.518;2024-02-26T18:31:23;7.20;99.90
31809;DHT22;18379;48.208;-1.518;2024-02-26T18:36:23;7.20;99.90
31809;DHT22;18379;48.208;-1.518;2024-02-26T18:41:25;7.20;99.90
31809;DHT22;18379;48.208;-1.518;2024-02-26T18:46:26;7.20;99.90
31809;DHT22;18379;48.208;-1.518;2024-02-26T18:51:26;7.20;99.90
31809;DHT22;18379;48.208;-1.518;2024-02-26T18:56:27;7.20;99.90
31809;DHT22;18379;48.208;-1.518;2024-02-26T19:01:28;7.20;99.90
31809;DHT22;18379;48.208;-1.518;2024-02-26T19:06:29;7.20;99.90
31809;DHT22;18379;48.208;-1.518;2024-02-26T19:11:33;7.20;99.90
31809;DHT22;18379;48.208;-1.518;2024-02-26T19:16:33;7.20;99.90
31809;DHT22;18379;48.208;-1.518;2024-02-26T19:21:35;7.20;99.90
31809;DHT22;18379;48.208;-1.518;2024-02-26T19:26:36;7.30;99.90
31809;DHT22;18379;48.208;-1.518;2024-02-26T19:31:40;7.30;99.90
31809;DHT22;18379;48.208;-1.518;2024-02-26T19:36:40;7.30;99.90
31809;DHT22;18379;48.208;-1.518;2024-02-26T19:41:41;7.30;99.90
31809;DHT22;18379;48.208;-1.518;2024-02-26T19:46:41;7.30;99.90
31809;DHT22;18379;48.208;-1.518;2024-02-26T19:51:42;7.30;99.90
31809;DHT22;18379;48.208;-1.518;2024-02-26T19:56:43;7.30;99.90
31809;DHT22;18379;48.208;-1.518;2024-02-26T20:01:45;7.40;99.90
31809;DHT22;18379;48.208;-1.518;2024-02-26T20:06:46;7.30;99.90
31809;DHT22;18379;48.208;-1.518;2024-02-26T20:11:48;7.40;99.90
31809;DHT22;18379;48.208;-1.518;2024-02-26T20:16:48;7.40;99.90
31809;DHT22;18379;48.208;-1.518;2024-02-26T20:21:49;7.50;99.90
31809;DHT22;18379;48.208;-1.518;2024-02-26T20:26:50;7.40;99.90
31809;DHT22;18379;48.208;-1.518;2024-02-26T20:31:51;7.40;99.90
31809;DHT22;18379;48.208;-1.518;2024-02-26T20:36:51;7.40;99.90
31809;DHT22;18379;48.208;-1.518;2024-02-26T20:41:52;7.30;99.90
31809;DHT22;18379;48.208;-1.518;2024-02-26T20:46:53;7.40;99.90
31809;DHT22;18379;48.208;-1.518;2024-02-26T20:51:56;7.40;99.90
31809;DHT22;18379;48.208;-1.518;2024-02-26T20:56:56;7.40;99.90
31809;DHT22;18379;48.208;-1.518;2024-02-26T21:01:57;7.40;99.90
31809;DHT22;18379;48.208;-1.518;2024-02-26T21:06:58;7.40;99.90
31809;DHT22;18379;48.208;-1.518;2024-02-26T21:11:58;7.40;99.90
31809;DHT22;18379;48.208;-1.518;2024-02-26T21:16:59;7.40;99.90
31809;DHT22;18379;48.208;-1.518;2024-02-26T21:22:00;7.30;99.90
31809;DHT22;18379;48.208;-1.518;2024-02-26T21:27:00;7.30;99.90
31809;DHT22;18379;48.208;-1.518;2024-02-26T21:32:01;7.30;99.90
31809;DHT22;18379;48.208;-1.518;2024-02-26T21:37:01;7.30;99.90
31809;DHT22;18379;48.208;-1.518;2024-02-26T21:42:02;7.20;99.90
31809;DHT22;18379;48.208;-1.518;2024-02-26T21:47:03;7.20;99.90
31809;DHT22;18379;48.208;-1.518;2024-02-26T21:52:04;7.20;99.90
31809;DHT22;18379;48.208;-1.518;2024-02-26T21:57:05;7.10;99.90
31809;DHT22;18379;48.208;-1.518;2024-02-26T22:02:06;7.10;99.90
31809;DHT22;18379;48.208;-1.518;2024-02-26T22:07:06;7.00;99.90
31809;DHT22;18379;48.208;-1.518;2024-02-26T22:12:07;6.90;99.90
31809;DHT22;18379;48.208;-1.518;2024-02-26T22:17:08;6.80;99.90
31809;DHT22;18379;48.208;-1.518;2024-02-26T22:22:09;6.80;99.90
31809;DHT22;18379;48.208;-1.518;2024-02-26T22:27:09;6.80;99.90
31809;DHT22;18379;48.208;-1.518;2024-02-26T22:32:10;6.80;99.90
31809;DHT22;18379;48.208;-1.518;2024-02-26T22:37:11;6.80;99.90
31809;DHT22;18379;48.208;-1.518;2024-02-26T22:42:13;6.70;99.90
31809;DHT22;18379;48.208;-1.518;2024-02-26T22:47:15;6.80;99.90
31809;DHT22;18379;48.208;-1.518;2024-02-26T22:52:15;6.80;99.90
31809;DHT22;18379;48.208;-1.518;2024-02-26T22:57:17;6.80;99.90
31809;DHT22;18379;48.208;-1.518;2024-02-26T23:02:18;6.70;99.90
31809;DHT22;18379;48.208;-1.518;2024-02-26T23:07:19;6.70;99.90
31809;DHT22;18379;48.208;-1.518;2024-02-26T23:12:19;6.80;99.90
31809;DHT22;18379;48.208;-1.518;2024-02-26T23:17:21;6.60;99.90
31809;DHT22;18379;48.208;-1.518;2024-02-26T23:22:21;6.60;99.90
31809;DHT22;18379;48.208;-1.518;2024-02-26T23:27:22;6.70;99.90
31809;DHT22;18379;48.208;-1.518;2024-02-26T23:32:23;6.70;99.90
31809;DHT22;18379;48.208;-1.518;2024-02-26T23:37:24;6.60;99.90
31809;DHT22;18379;48.208;-1.518;2024-02-26T23:42:24;6.60;99.90
31809;DHT22;18379;48.208;-1.518;2024-02-26T23:47:26;6.60;99.90
31809;DHT22;18379;48.208;-1.518;2024-02-26T23:52:26;6.60;99.90
31809;DHT22;18379;48.208;-1.518;2024-02-26T23:57:27;6.50;99.90
